Port Angeles, Washington
Current Conditions -  °F | °C
As of 4:53 AM on Tuesday 21 Oct 2014 (Local Time) from KCLM Reporting Station
Broken Clouds Broken Clouds  
Wind Chill: 11°   Ceiling: 7500
Heat Index: 11°   Visibility: 10mi
Dew Point:   Wind: 0mph
Humidity: 80%   Direction: NA
Pressure: 29.78"   Gusts: NA
Location:  48.12°N, 123.43°W
Report Text: KCLM 211153Z AUTO 00000KT 10SM BKN075 BKN100 11/08 A2978 RMK AO2 RAE48 SLP082 P0000 60001 70004 T01110078 10128 20100 51005 TSNO $
Loading
Personal Weather Stations






























Interactive Weather Map
Tropical Storm Tracking
New forecast layout! Learn more

10-Day Weather Forecast

Advertisements
Track Severe Weather on mobile